Hauptseite
METAR-TAF:

METAR-TAF

Flughäfen :

Heeresflugplatz Bückeburg

Bückeburg, Deutschland

Breite: 52-17N, Länge: 009-05E, Höhe: 70 m

Beobachtung

Neuester Wetterbericht von vor 52 Minuten, um 05:20 UTC
Wind 10 kt aus Süd
Temperatur 8°C
Luftfeuchtigkeit 81%
Luftdruck 1025 hPa
Sichtweite 10 km oder mehr
Leicht bewölkt in der Höhe von 4000 ft

METAR: ETHB 070520Z 19010KT 9999 FEW040 08/05 Q1025 BLU+BLU+

Zeit: 08:12 (06:12 UTC)

Prognose

Neuester Wetterbericht von vor 2 Stunden und 4 Minuten, um 04:08 UTC
Gültige Prognose vom 07 um 05 UTC bis 07 um 14 UTC
Wind 10 kt aus Süd/Südwest
Sichtweite 10 km oder mehr
Leicht bewölkt in der Höhe von 2500 ft

TAF: ETHB 070408Z 0705/0714 21010KT 9999 NSW FEW025

Wetterbeobachtungen und Prognosen von mehr als 4000 Flughäfen (METAR und TAF Bericht).

Die verfügbaren Stationen werden durch gelbe und rote Markierungen auf der Karte dargestellt.

Führen Sie die Maus auf sie, um den Namen der Station zu sehen.

Darauf klicken, um die Beobachtung von Wetterbeobachtungen und Prognosen zu sehen.

Um die Karte zu ändern : klicken Sie auf den grünen Tasten mit einem schwarzen Kreuz Zum Vergrößern, auf den grünen Button mit einem Gedankenstrich zu verkleinern, oder auf die grünen Pfeile für benachbarte Karten.


METAR-TAF: